Aviation Digital Data Service (ADDS)

Output produced by METARs form (0446 UTC 24 January 2019)
found at http://www.aviationweather.gov/metar/data/
 
METAR text: NTAA 240430Z 09008KT 060V120 9999 FEW023 BKN300 30/20 Q1012 WS ALL RWY NOSIG
Conditions at: NTAA (TAHITI-FAAA POLY, WS) observed 0430 UTC 24 January 2019
Temperature: 30.0°C (86°F)
Dewpoint: 20.0°C (68°F) [RH = 55%]
Pressure (altimeter): 29.88 inches Hg (1012.0 mb)
Winds: from the E (90 degrees) at 9 MPH (8 knots; 4.1 m/s)
Visibility: 6 or more miles (10+ km)
Ceiling: 30000 feet AGL
Clouds: few clouds at 2300 feet AGL
broken clouds at 30000 feet AGL
Weather: no significant weather observed at this time

METAR text: NTAA 240400Z 07010KT 040V100 9999 FEW023 BKN300 30/19 Q1011 WS ALL RWY NOSIG
Conditions at: NTAA (TAHITI-FAAA POLY, WS) observed 0400 UTC 24 January 2019
Temperature: 30.0°C (86°F)
Dewpoint: 19.0°C (66°F) [RH = 52%]
Pressure (altimeter): 29.85 inches Hg (1011.0 mb)
Winds: from the ENE (70 degrees) at 12 MPH (10 knots; 5.1 m/s)
Visibility: 6 or more miles (10+ km)
Ceiling: 30000 feet AGL
Clouds: few clouds at 2300 feet AGL
broken clouds at 30000 feet AGL
Weather: no significant weather observed at this time

METAR text: NTAA 240330Z 08011KT 040V120 9999 FEW023 BKN300 31/21 Q1011 WS ALL RWY NOSIG
Conditions at: NTAA (TAHITI-FAAA POLY, WS) observed 0330 UTC 24 January 2019
Temperature: 31.0°C (88°F)
Dewpoint: 21.0°C (70°F) [RH = 55%]
Pressure (altimeter): 29.85 inches Hg (1011.0 mb)
Winds: from the E (80 degrees) at 13 MPH (11 knots; 5.7 m/s)
Visibility: 6 or more miles (10+ km)
Ceiling: 30000 feet AGL
Clouds: few clouds at 2300 feet AGL
broken clouds at 30000 feet AGL
Weather: no significant weather observed at this time

METAR text: NTAA 240300Z VRB04KT 9999 FEW023 BKN300 31/21 Q1011 WS ALL RWY NOSIG
Conditions at: NTAA (TAHITI-FAAA POLY, WS) observed 0300 UTC 24 January 2019
Temperature: 31.0°C (88°F)
Dewpoint: 21.0°C (70°F) [RH = 55%]
Pressure (altimeter): 29.85 inches Hg (1011.0 mb)
Winds: variable direction winds at 5 MPH (4 knots; 2.1 m/s)
Visibility: 6 or more miles (10+ km)
Ceiling: 30000 feet AGL
Clouds: few clouds at 2300 feet AGL
broken clouds at 30000 feet AGL
Weather: no significant weather observed at this time

METAR text: NTAA 240230Z VRB07G31KT 9999 VCSH FEW020 SCT043 31/22 Q1011 WS ALL RWY NOSIG
Conditions at: NTAA (TAHITI-FAAA POLY, WS) observed 0230 UTC 24 January 2019
Temperature: 31.0°C (88°F)
Dewpoint: 22.0°C (72°F) [RH = 59%]
Pressure (altimeter): 29.85 inches Hg (1011.0 mb)
Winds: variable direction winds at 8 MPH (7 knots; 3.6 m/s)
gusting to 36 MPH (31 knots; 15.9 m/s)
Visibility: 6 or more miles (10+ km)
Ceiling: at least 12,000 feet AGL
Clouds: few clouds at 2000 feet AGL
scattered clouds at 4300 feet AGL
Weather: VCSH  (showers in vicinity)

METAR text: NTAA 240200Z 08013KT 050V170 9999 VCSH FEW020 SCT043 31/22 Q1010 WS ALL RWY NOSIG
Conditions at: NTAA (TAHITI-FAAA POLY, WS) observed 0200 UTC 24 January 2019
Temperature: 31.0°C (88°F)
Dewpoint: 22.0°C (72°F) [RH = 59%]
Pressure (altimeter): 29.82 inches Hg (1010.0 mb)
Winds: from the E (80 degrees) at 15 MPH (13 knots; 6.7 m/s)
Visibility: 6 or more miles (10+ km)
Ceiling: at least 12,000 feet AGL
Clouds: few clouds at 2000 feet AGL
scattered clouds at 4300 feet AGL
Weather: VCSH  (showers in vicinity)

METAR text: NTAA 240130Z VRB09G23KT 9999 VCSH FEW020 SCT043 32/22 Q1010 WS ALL RWY NOSIG
Conditions at: NTAA (TAHITI-FAAA POLY, WS) observed 0130 UTC 24 January 2019
Temperature: 32.0°C (90°F)
Dewpoint: 22.0°C (72°F) [RH = 56%]
Pressure (altimeter): 29.82 inches Hg (1010.0 mb)
Winds: variable direction winds at 10 MPH (9 knots; 4.6 m/s)
gusting to 26 MPH (23 knots; 11.8 m/s)
Visibility: 6 or more miles (10+ km)
Ceiling: at least 12,000 feet AGL
Clouds: few clouds at 2000 feet AGL
scattered clouds at 4300 feet AGL
Weather: VCSH  (showers in vicinity)

METAR text: NTAA 240100Z 07013KT 040V100 9999 VCSH FEW020 SCT043 32/22 Q1011 WS ALL RWY NOSIG
Conditions at: NTAA (TAHITI-FAAA POLY, WS) observed 0100 UTC 24 January 2019
Temperature: 32.0°C (90°F)
Dewpoint: 22.0°C (72°F) [RH = 56%]
Pressure (altimeter): 29.85 inches Hg (1011.0 mb)
Winds: from the ENE (70 degrees) at 15 MPH (13 knots; 6.7 m/s)
Visibility: 6 or more miles (10+ km)
Ceiling: at least 12,000 feet AGL
Clouds: few clouds at 2000 feet AGL
scattered clouds at 4300 feet AGL
Weather: VCSH  (showers in vicinity)

METAR text: NTAA 240030Z VRB05KT 9999 VCSH FEW020 SCT043 32/22 Q1011 WS ALL RWY NOSIG
Conditions at: NTAA (TAHITI-FAAA POLY, WS) observed 0030 UTC 24 January 2019
Temperature: 32.0°C (90°F)
Dewpoint: 22.0°C (72°F) [RH = 56%]
Pressure (altimeter): 29.85 inches Hg (1011.0 mb)
Winds: variable direction winds at 6 MPH (5 knots; 2.6 m/s)
Visibility: 6 or more miles (10+ km)
Ceiling: at least 12,000 feet AGL
Clouds: few clouds at 2000 feet AGL
scattered clouds at 4300 feet AGL
Weather: VCSH  (showers in vicinity)

METAR text: NTAA 240000Z 09013G25KT 040V170 9999 VCSH FEW020 32/22 Q1011 WS ALL RWY NOSIG
Conditions at: NTAA (TAHITI-FAAA POLY, WS) observed 0000 UTC 24 January 2019
Temperature: 32.0°C (90°F)
Dewpoint: 22.0°C (72°F) [RH = 56%]
Pressure (altimeter): 29.85 inches Hg (1011.0 mb)
Winds: from the E (90 degrees) at 15 MPH (13 knots; 6.7 m/s)
gusting to 29 MPH (25 knots; 12.9 m/s)
Visibility: 6 or more miles (10+ km)
Ceiling: at least 12,000 feet AGL
Clouds: few clouds at 2000 feet AGL
Weather: VCSH  (showers in vicinity)

METAR text: NTAA 232330Z VRB03KT 9999 VCSH FEW020 33/24 Q1011 WS ALL RWY NOSIG
Conditions at: NTAA (TAHITI-FAAA POLY, WS) observed 2330 UTC 23 January 2019
Temperature: 33.0°C (91°F)
Dewpoint: 24.0°C (75°F) [RH = 59%]
Pressure (altimeter): 29.85 inches Hg (1011.0 mb)
Winds: variable direction winds at 3 MPH (3 knots; 1.5 m/s)
Visibility: 6 or more miles (10+ km)
Ceiling: at least 12,000 feet AGL
Clouds: few clouds at 2000 feet AGL
Weather: VCSH  (showers in vicinity)

METAR text: NTAA 232300Z 08016KT 050V120 9999 VCSH FEW020 33/20 Q1012 WS ALL RWY NOSIG
Conditions at: NTAA (TAHITI-FAAA POLY, WS) observed 2300 UTC 23 January 2019
Temperature: 33.0°C (91°F)
Dewpoint: 20.0°C (68°F) [RH = 46%]
Pressure (altimeter): 29.88 inches Hg (1012.0 mb)
Winds: from the E (80 degrees) at 18 MPH (16 knots; 8.2 m/s)
Visibility: 6 or more miles (10+ km)
Ceiling: at least 12,000 feet AGL
Clouds: few clouds at 2000 feet AGL
Weather: VCSH  (showers in vicinity)

METAR text: NTAA 232230Z 07016KT 9999 FEW023 33/23 Q1012 NOSIG
Conditions at: NTAA (TAHITI-FAAA POLY, WS) observed 2230 UTC 23 January 2019
Temperature: 33.0°C (91°F)
Dewpoint: 23.0°C (73°F) [RH = 56%]
Pressure (altimeter): 29.88 inches Hg (1012.0 mb)
Winds: from the ENE (70 degrees) at 18 MPH (16 knots; 8.2 m/s)
Visibility: 6 or more miles (10+ km)
Ceiling: at least 12,000 feet AGL
Clouds: few clouds at 2300 feet AGL
Weather: no significant weather observed at this time

METAR text: NTAA 232200Z 07013KT 9999 FEW023 32/21 Q1012 NOSIG
Conditions at: NTAA (TAHITI-FAAA POLY, WS) observed 2200 UTC 23 January 2019
Temperature: 32.0°C (90°F)
Dewpoint: 21.0°C (70°F) [RH = 52%]
Pressure (altimeter): 29.88 inches Hg (1012.0 mb)
Winds: from the ENE (70 degrees) at 15 MPH (13 knots; 6.7 m/s)
Visibility: 6 or more miles (10+ km)
Ceiling: at least 12,000 feet AGL
Clouds: few clouds at 2300 feet AGL
Weather: no significant weather observed at this time

METAR text: NTAA 232130Z 07015KT 9999 FEW023 32/22 Q1012 NOSIG
Conditions at: NTAA (TAHITI-FAAA POLY, WS) observed 2130 UTC 23 January 2019
Temperature: 32.0°C (90°F)
Dewpoint: 22.0°C (72°F) [RH = 56%]
Pressure (altimeter): 29.88 inches Hg (1012.0 mb)
Winds: from the ENE (70 degrees) at 17 MPH (15 knots; 7.7 m/s)
Visibility: 6 or more miles (10+ km)
Ceiling: at least 12,000 feet AGL
Clouds: few clouds at 2300 feet AGL
Weather: no significant weather observed at this time

METAR text: NTAA 232100Z 08017KT 9999 FEW023 32/22 Q1012 NOSIG
Conditions at: NTAA (TAHITI-FAAA POLY, WS) observed 2100 UTC 23 January 2019
Temperature: 32.0°C (90°F)
Dewpoint: 22.0°C (72°F) [RH = 56%]
Pressure (altimeter): 29.88 inches Hg (1012.0 mb)
Winds: from the E (80 degrees) at 20 MPH (17 knots; 8.7 m/s)
Visibility: 6 or more miles (10+ km)
Ceiling: at least 12,000 feet AGL
Clouds: few clouds at 2300 feet AGL
Weather: no significant weather observed at this time

METAR text: NTAA 232030Z 07016KT 9999 FEW023 32/21 Q1012 NOSIG
Conditions at: NTAA (TAHITI-FAAA POLY, WS) observed 2030 UTC 23 January 2019
Temperature: 32.0°C (90°F)
Dewpoint: 21.0°C (70°F) [RH = 52%]
Pressure (altimeter): 29.88 inches Hg (1012.0 mb)
Winds: from the ENE (70 degrees) at 18 MPH (16 knots; 8.2 m/s)
Visibility: 6 or more miles (10+ km)
Ceiling: at least 12,000 feet AGL
Clouds: few clouds at 2300 feet AGL
Weather: no significant weather observed at this time

METAR text: NTAA 232000Z 08016KT 040V100 9999 FEW023 31/21 Q1013 NOSIG
Conditions at: NTAA (TAHITI-FAAA POLY, WS) observed 2000 UTC 23 January 2019
Temperature: 31.0°C (88°F)
Dewpoint: 21.0°C (70°F) [RH = 55%]
Pressure (altimeter): 29.91 inches Hg (1013.0 mb)
Winds: from the E (80 degrees) at 18 MPH (16 knots; 8.2 m/s)
Visibility: 6 or more miles (10+ km)
Ceiling: at least 12,000 feet AGL
Clouds: few clouds at 2300 feet AGL
Weather: no significant weather observed at this time

METAR text: NTAA 231930Z 08013KT 9999 FEW023 31/21 Q1013 NOSIG
Conditions at: NTAA (TAHITI-FAAA POLY, WS) observed 1930 UTC 23 January 2019
Temperature: 31.0°C (88°F)
Dewpoint: 21.0°C (70°F) [RH = 55%]
Pressure (altimeter): 29.91 inches Hg (1013.0 mb)
Winds: from the E (80 degrees) at 15 MPH (13 knots; 6.7 m/s)
Visibility: 6 or more miles (10+ km)
Ceiling: at least 12,000 feet AGL
Clouds: few clouds at 2300 feet AGL
Weather: no significant weather observed at this time

METAR text: NTAA 231900Z 08010KT 9999 FEW023 29/20 Q1013 NOSIG
Conditions at: NTAA (TAHITI-FAAA POLY, WS) observed 1900 UTC 23 January 2019
Temperature: 29.0°C (84°F)
Dewpoint: 20.0°C (68°F) [RH = 58%]
Pressure (altimeter): 29.91 inches Hg (1013.0 mb)
Winds: from the E (80 degrees) at 12 MPH (10 knots; 5.1 m/s)
Visibility: 6 or more miles (10+ km)
Ceiling: at least 12,000 feet AGL
Clouds: few clouds at 2300 feet AGL
Weather: no significant weather observed at this time

METAR text: NTAA 231830Z 08010KT 9999 VCSH FEW020 29/22 Q1013 NOSIG
Conditions at: NTAA (TAHITI-FAAA POLY, WS) observed 1830 UTC 23 January 2019
Temperature: 29.0°C (84°F)
Dewpoint: 22.0°C (72°F) [RH = 66%]
Pressure (altimeter): 29.91 inches Hg (1013.0 mb)
Winds: from the E (80 degrees) at 12 MPH (10 knots; 5.1 m/s)
Visibility: 6 or more miles (10+ km)
Ceiling: at least 12,000 feet AGL
Clouds: few clouds at 2000 feet AGL
Weather: VCSH  (showers in vicinity)

METAR text: NTAA 231800Z 08016KT 050V110 9999 -SHRA SCT016TCU 28/22 Q1013 NOSIG
Conditions at: NTAA (TAHITI-FAAA POLY, WS) observed 1800 UTC 23 January 2019
Temperature: 28.0°C (82°F)
Dewpoint: 22.0°C (72°F) [RH = 70%]
Pressure (altimeter): 29.91 inches Hg (1013.0 mb)
Winds: from the E (80 degrees) at 18 MPH (16 knots; 8.2 m/s)
Visibility: 6 or more miles (10+ km)
Ceiling: at least 12,000 feet AGL
Clouds: scattered clouds at 1600 feet AGL
Weather: -SHRA  (light rain showers)

METAR text: NTAA 231730Z 08013KT 050V110 9999 VCSH SCT020 29/21 Q1012 NOSIG
Conditions at: NTAA (TAHITI-FAAA POLY, WS) observed 1730 UTC 23 January 2019
Temperature: 29.0°C (84°F)
Dewpoint: 21.0°C (70°F) [RH = 62%]
Pressure (altimeter): 29.88 inches Hg (1012.0 mb)
Winds: from the E (80 degrees) at 15 MPH (13 knots; 6.7 m/s)
Visibility: 6 or more miles (10+ km)
Ceiling: at least 12,000 feet AGL
Clouds: scattered clouds at 2000 feet AGL
Weather: VCSH  (showers in vicinity)

METAR text: NTAA 231700Z 09008KT 9999 FEW023 SCT300 28/21 Q1012 NOSIG
Conditions at: NTAA (TAHITI-FAAA POLY, WS) observed 1700 UTC 23 January 2019
Temperature: 28.0°C (82°F)
Dewpoint: 21.0°C (70°F) [RH = 66%]
Pressure (altimeter): 29.88 inches Hg (1012.0 mb)
Winds: from the E (90 degrees) at 9 MPH (8 knots; 4.1 m/s)
Visibility: 6 or more miles (10+ km)
Ceiling: at least 12,000 feet AGL
Clouds: few clouds at 2300 feet AGL
scattered clouds at 30000 feet AGL
Weather: no significant weather observed at this time

METAR text: NTAA 231630Z 10005KT 040V150 9999 FEW023 SCT300 26/21 Q1012 NOSIG
Conditions at: NTAA (TAHITI-FAAA POLY, WS) observed 1630 UTC 23 January 2019
Temperature: 26.0°C (79°F)
Dewpoint: 21.0°C (70°F) [RH = 74%]
Pressure (altimeter): 29.88 inches Hg (1012.0 mb)
Winds: from the E (100 degrees) at 6 MPH (5 knots; 2.6 m/s)
Visibility: 6 or more miles (10+ km)
Ceiling: at least 12,000 feet AGL
Clouds: few clouds at 2300 feet AGL
scattered clouds at 30000 feet AGL
Weather: no significant weather observed at this time

METAR text: NTAA 231600Z 09008KT 040V130 9999 FEW023 BKN300 27/21 Q1012 NOSIG
Conditions at: NTAA (TAHITI-FAAA POLY, WS) observed 1600 UTC 23 January 2019
Temperature: 27.0°C (81°F)
Dewpoint: 21.0°C (70°F) [RH = 70%]
Pressure (altimeter): 29.88 inches Hg (1012.0 mb)
Winds: from the E (90 degrees) at 9 MPH (8 knots; 4.1 m/s)
Visibility: 6 or more miles (10+ km)
Ceiling: 30000 feet AGL
Clouds: few clouds at 2300 feet AGL
broken clouds at 30000 feet AGL
Weather: no significant weather observed at this time

METAR text: NTAA 231530Z AUTO 10005KT 070V140 9999 FEW047/// SCT070/// BKN110/// 26/21 Q1011 NOSIG
Conditions at: NTAA (TAHITI-FAAA POLY, WS) observed 1530 UTC 23 January 2019
Temperature: 26.0°C (79°F)
Dewpoint: 21.0°C (70°F) [RH = 74%]
Pressure (altimeter): 29.85 inches Hg (1011.0 mb)
Winds: from the E (100 degrees) at 6 MPH (5 knots; 2.6 m/s)
Visibility: 6 or more miles (10+ km)
Ceiling: 11000 feet AGL
Clouds: few clouds at 4700 feet AGL
scattered clouds at 7000 feet AGL
broken clouds at 11000 feet AGL
Weather: no significant weather observed at this time

METAR text: NTAA 231500Z AUTO VRB03KT 9999 SCT068/// 26/21 Q1011 NOSIG
Conditions at: NTAA (TAHITI-FAAA POLY, WS) observed 1500 UTC 23 January 2019
Temperature: 26.0°C (79°F)
Dewpoint: 21.0°C (70°F) [RH = 74%]
Pressure (altimeter): 29.85 inches Hg (1011.0 mb)
Winds: variable direction winds at 3 MPH (3 knots; 1.5 m/s)
Visibility: 6 or more miles (10+ km)
Ceiling: at least 12,000 feet AGL
Clouds: scattered clouds at 6800 feet AGL
Weather: no significant weather observed at this time

METAR text: NTAA 231430Z AUTO 09005KT 050V120 9999 FEW029/// 26/22 Q1011 NOSIG
Conditions at: NTAA (TAHITI-FAAA POLY, WS) observed 1430 UTC 23 January 2019
Temperature: 26.0°C (79°F)
Dewpoint: 22.0°C (72°F) [RH = 79%]
Pressure (altimeter): 29.85 inches Hg (1011.0 mb)
Winds: from the E (90 degrees) at 6 MPH (5 knots; 2.6 m/s)
Visibility: 6 or more miles (10+ km)
Ceiling: at least 12,000 feet AGL
Clouds: few clouds at 2900 feet AGL
Weather: no significant weather observed at this time

METAR text: NTAA 231400Z AUTO VRB03KT 9999 NCD 26/21 Q1011 NOSIG
Conditions at: NTAA (TAHITI-FAAA POLY, WS) observed 1400 UTC 23 January 2019
Temperature: 26.0°C (79°F)
Dewpoint: 21.0°C (70°F) [RH = 74%]
Pressure (altimeter): 29.85 inches Hg (1011.0 mb)
Winds: variable direction winds at 3 MPH (3 knots; 1.5 m/s)
Visibility: 6 or more miles (10+ km)
Ceiling: at least 12,000 feet AGL
Clouds: sky clear below 12,000 feet AGL
Weather: no significant weather observed at this time

METAR text: NTAA 231330Z AUTO VRB03KT 9999 NCD 26/22 Q1011 NOSIG
Conditions at: NTAA (TAHITI-FAAA POLY, WS) observed 1330 UTC 23 January 2019
Temperature: 26.0°C (79°F)
Dewpoint: 22.0°C (72°F) [RH = 79%]
Pressure (altimeter): 29.85 inches Hg (1011.0 mb)
Winds: variable direction winds at 3 MPH (3 knots; 1.5 m/s)
Visibility: 6 or more miles (10+ km)
Ceiling: at least 12,000 feet AGL
Clouds: sky clear below 12,000 feet AGL
Weather: no significant weather observed at this time

METAR text: NTAA 231300Z VRB03KT 9999 FEW020 SCT300 26/22 Q1011 NOSIG
Conditions at: NTAA (TAHITI-FAAA POLY, WS) observed 1300 UTC 23 January 2019
Temperature: 26.0°C (79°F)
Dewpoint: 22.0°C (72°F) [RH = 79%]
Pressure (altimeter): 29.85 inches Hg (1011.0 mb)
Winds: variable direction winds at 3 MPH (3 knots; 1.5 m/s)
Visibility: 6 or more miles (10+ km)
Ceiling: at least 12,000 feet AGL
Clouds: few clouds at 2000 feet AGL
scattered clouds at 30000 feet AGL
Weather: no significant weather observed at this time

METAR text: NTAA 231230Z 12003KT 090V170 9999 FEW020 SCT300 26/22 Q1011 NOSIG
Conditions at: NTAA (TAHITI-FAAA POLY, WS) observed 1230 UTC 23 January 2019
Temperature: 26.0°C (79°F)
Dewpoint: 22.0°C (72°F) [RH = 79%]
Pressure (altimeter): 29.85 inches Hg (1011.0 mb)
Winds: from the ESE (120 degrees) at 3 MPH (3 knots; 1.5 m/s)
Visibility: 6 or more miles (10+ km)
Ceiling: at least 12,000 feet AGL
Clouds: few clouds at 2000 feet AGL
scattered clouds at 30000 feet AGL
Weather: no significant weather observed at this time

METAR text: NTAA 231211Z 11004KT 060V190 9999 FEW020 SCT300 26/21 Q1011 NOSIG
Conditions at: NTAA (TAHITI-FAAA POLY, WS) observed 1211 UTC 23 January 2019
Temperature: 26.0°C (79°F)
Dewpoint: 21.0°C (70°F) [RH = 74%]
Pressure (altimeter): 29.85 inches Hg (1011.0 mb)
Winds: from the ESE (110 degrees) at 5 MPH (4 knots; 2.1 m/s)
Visibility: 6 or more miles (10+ km)
Ceiling: at least 12,000 feet AGL
Clouds: few clouds at 2000 feet AGL
scattered clouds at 30000 feet AGL
Weather: no significant weather observed at this time

METAR text: NTAA 231130Z VRB02KT 9999 FEW020 SCT300 26/22 Q1012 NOSIG
Conditions at: NTAA (TAHITI-FAAA POLY, WS) observed 1130 UTC 23 January 2019
Temperature: 26.0°C (79°F)
Dewpoint: 22.0°C (72°F) [RH = 79%]
Pressure (altimeter): 29.88 inches Hg (1012.0 mb)
Winds: variable direction winds at 2 MPH (2 knots; 1.0 m/s)
Visibility: 6 or more miles (10+ km)
Ceiling: at least 12,000 feet AGL
Clouds: few clouds at 2000 feet AGL
scattered clouds at 30000 feet AGL
Weather: no significant weather observed at this time

METAR text: NTAA 231100Z 09003KT 350V120 9999 FEW020 BKN300 27/21 Q1012 NOSIG
Conditions at: NTAA (TAHITI-FAAA POLY, WS) observed 1100 UTC 23 January 2019
Temperature: 27.0°C (81°F)
Dewpoint: 21.0°C (70°F) [RH = 70%]
Pressure (altimeter): 29.88 inches Hg (1012.0 mb)
Winds: from the E (90 degrees) at 3 MPH (3 knots; 1.5 m/s)
Visibility: 6 or more miles (10+ km)
Ceiling: 30000 feet AGL
Clouds: few clouds at 2000 feet AGL
broken clouds at 30000 feet AGL
Weather: no significant weather observed at this time

METAR text: NTAA 231030Z 11004KT 060V160 9999 FEW020 BKN300 26/21 Q1012 NOSIG
Conditions at: NTAA (TAHITI-FAAA POLY, WS) observed 1030 UTC 23 January 2019
Temperature: 26.0°C (79°F)
Dewpoint: 21.0°C (70°F) [RH = 74%]
Pressure (altimeter): 29.88 inches Hg (1012.0 mb)
Winds: from the ESE (110 degrees) at 5 MPH (4 knots; 2.1 m/s)
Visibility: 6 or more miles (10+ km)
Ceiling: 30000 feet AGL
Clouds: few clouds at 2000 feet AGL
broken clouds at 30000 feet AGL
Weather: no significant weather observed at this time

METAR text: NTAA 231000Z 08005KT 040V140 9999 FEW020 BKN300 27/21 Q1013 NOSIG
Conditions at: NTAA (TAHITI-FAAA POLY, WS) observed 1000 UTC 23 January 2019
Temperature: 27.0°C (81°F)
Dewpoint: 21.0°C (70°F) [RH = 70%]
Pressure (altimeter): 29.91 inches Hg (1013.0 mb)
Winds: from the E (80 degrees) at 6 MPH (5 knots; 2.6 m/s)
Visibility: 6 or more miles (10+ km)
Ceiling: 30000 feet AGL
Clouds: few clouds at 2000 feet AGL
broken clouds at 30000 feet AGL
Weather: no significant weather observed at this time

METAR text: NTAA 230930Z 10007KT 070V130 9999 FEW020 BKN300 27/22 Q1013 NOSIG
Conditions at: NTAA (TAHITI-FAAA POLY, WS) observed 0930 UTC 23 January 2019
Temperature: 27.0°C (81°F)
Dewpoint: 22.0°C (72°F) [RH = 74%]
Pressure (altimeter): 29.91 inches Hg (1013.0 mb)
Winds: from the E (100 degrees) at 8 MPH (7 knots; 3.6 m/s)
Visibility: 6 or more miles (10+ km)
Ceiling: 30000 feet AGL
Clouds: few clouds at 2000 feet AGL
broken clouds at 30000 feet AGL
Weather: no significant weather observed at this time

METAR text: NTAA 230900Z 07007G18KT 020V110 9999 FEW020 BKN300 27/22 Q1014 NOSIG
Conditions at: NTAA (TAHITI-FAAA POLY, WS) observed 0900 UTC 23 January 2019
Temperature: 27.0°C (81°F)
Dewpoint: 22.0°C (72°F) [RH = 74%]
Pressure (altimeter): 29.94 inches Hg (1014.0 mb)
Winds: from the ENE (70 degrees) at 8 MPH (7 knots; 3.6 m/s)
gusting to 21 MPH (18 knots; 9.3 m/s)
Visibility: 6 or more miles (10+ km)
Ceiling: 30000 feet AGL
Clouds: few clouds at 2000 feet AGL
broken clouds at 30000 feet AGL
Weather: no significant weather observed at this time

METAR text: NTAA 230836Z 09006KT 050V110 9999 FEW020 BKN300 27/21 Q1014 NOSIG
Conditions at: NTAA (TAHITI-FAAA POLY, WS) observed 0836 UTC 23 January 2019
Temperature: 27.0°C (81°F)
Dewpoint: 21.0°C (70°F) [RH = 70%]
Pressure (altimeter): 29.94 inches Hg (1014.0 mb)
Winds: from the E (90 degrees) at 7 MPH (6 knots; 3.1 m/s)
Visibility: 6 or more miles (10+ km)
Ceiling: 30000 feet AGL
Clouds: few clouds at 2000 feet AGL
broken clouds at 30000 feet AGL
Weather: no significant weather observed at this time

METAR text: NTAA 230800Z 08006KT 050V110 9999 FEW020 BKN300 27/21 Q1013 NOSIG
Conditions at: NTAA (TAHITI-FAAA POLY, WS) observed 0800 UTC 23 January 2019
Temperature: 27.0°C (81°F)
Dewpoint: 21.0°C (70°F) [RH = 70%]
Pressure (altimeter): 29.91 inches Hg (1013.0 mb)
Winds: from the E (80 degrees) at 7 MPH (6 knots; 3.1 m/s)
Visibility: 6 or more miles (10+ km)
Ceiling: 30000 feet AGL
Clouds: few clouds at 2000 feet AGL
broken clouds at 30000 feet AGL
Weather: no significant weather observed at this time

METAR text: NTAA 230730Z 07005KT 9999 FEW020 BKN300 27/21 Q1013 NOSIG
Conditions at: NTAA (TAHITI-FAAA POLY, WS) observed 0730 UTC 23 January 2019
Temperature: 27.0°C (81°F)
Dewpoint: 21.0°C (70°F) [RH = 70%]
Pressure (altimeter): 29.91 inches Hg (1013.0 mb)
Winds: from the ENE (70 degrees) at 6 MPH (5 knots; 2.6 m/s)
Visibility: 6 or more miles (10+ km)
Ceiling: 30000 feet AGL
Clouds: few clouds at 2000 feet AGL
broken clouds at 30000 feet AGL
Weather: no significant weather observed at this time

METAR text: NTAA 230700Z 09006KT 9999 FEW020 BKN300 27/21 Q1013 NOSIG
Conditions at: NTAA (TAHITI-FAAA POLY, WS) observed 0700 UTC 23 January 2019
Temperature: 27.0°C (81°F)
Dewpoint: 21.0°C (70°F) [RH = 70%]
Pressure (altimeter): 29.91 inches Hg (1013.0 mb)
Winds: from the E (90 degrees) at 7 MPH (6 knots; 3.1 m/s)
Visibility: 6 or more miles (10+ km)
Ceiling: 30000 feet AGL
Clouds: few clouds at 2000 feet AGL
broken clouds at 30000 feet AGL
Weather: no significant weather observed at this time

METAR text: NTAA 230630Z 08003KT 030V150 9999 FEW020 BKN300 27/21 Q1012 NOSIG
Conditions at: NTAA (TAHITI-FAAA POLY, WS) observed 0630 UTC 23 January 2019
Temperature: 27.0°C (81°F)
Dewpoint: 21.0°C (70°F) [RH = 70%]
Pressure (altimeter): 29.88 inches Hg (1012.0 mb)
Winds: from the E (80 degrees) at 3 MPH (3 knots; 1.5 m/s)
Visibility: 6 or more miles (10+ km)
Ceiling: 30000 feet AGL
Clouds: few clouds at 2000 feet AGL
broken clouds at 30000 feet AGL
Weather: no significant weather observed at this time

METAR text: NTAA 230600Z 08014KT 050V110 9999 FEW020 BKN300 27/21 Q1012 NOSIG
Conditions at: NTAA (TAHITI-FAAA POLY, WS) observed 0600 UTC 23 January 2019
Temperature: 27.0°C (81°F)
Dewpoint: 21.0°C (70°F) [RH = 70%]
Pressure (altimeter): 29.88 inches Hg (1012.0 mb)
Winds: from the E (80 degrees) at 16 MPH (14 knots; 7.2 m/s)
Visibility: 6 or more miles (10+ km)
Ceiling: 30000 feet AGL
Clouds: few clouds at 2000 feet AGL
broken clouds at 30000 feet AGL
Weather: no significant weather observed at this time

METAR text: NTAA 230530Z 08007KT 9999 FEW020 BKN300 28/20 Q1012 WS ALL RWY NOSIG
Conditions at: NTAA (TAHITI-FAAA POLY, WS) observed 0530 UTC 23 January 2019
Temperature: 28.0°C (82°F)
Dewpoint: 20.0°C (68°F) [RH = 62%]
Pressure (altimeter): 29.88 inches Hg (1012.0 mb)
Winds: from the E (80 degrees) at 8 MPH (7 knots; 3.6 m/s)
Visibility: 6 or more miles (10+ km)
Ceiling: 30000 feet AGL
Clouds: few clouds at 2000 feet AGL
broken clouds at 30000 feet AGL
Weather: no significant weather observed at this time

METAR text: NTAA 230500Z 11008KT 090V150 9999 VCSH FEW020 BKN300 29/22 Q1012 WS ALL RWY NOSIG
Conditions at: NTAA (TAHITI-FAAA POLY, WS) observed 0500 UTC 23 January 2019
Temperature: 29.0°C (84°F)
Dewpoint: 22.0°C (72°F) [RH = 66%]
Pressure (altimeter): 29.88 inches Hg (1012.0 mb)
Winds: from the ESE (110 degrees) at 9 MPH (8 knots; 4.1 m/s)
Visibility: 6 or more miles (10+ km)
Ceiling: 30000 feet AGL
Clouds: few clouds at 2000 feet AGL
broken clouds at 30000 feet AGL
Weather: VCSH  (showers in vicinity)

METAR text: NTAA 230430Z 06013KT 040V100 9999 VCSH FEW020 BKN300 28/24 Q1011 WS ALL RWY NOSIG
Conditions at: NTAA (TAHITI-FAAA POLY, WS) observed 0430 UTC 23 January 2019
Temperature: 28.0°C (82°F)
Dewpoint: 24.0°C (75°F) [RH = 79%]
Pressure (altimeter): 29.85 inches Hg (1011.0 mb)
Winds: from the ENE (60 degrees) at 15 MPH (13 knots; 6.7 m/s)
Visibility: 6 or more miles (10+ km)
Ceiling: 30000 feet AGL
Clouds: few clouds at 2000 feet AGL
broken clouds at 30000 feet AGL
Weather: VCSH  (showers in vicinity)

METAR text: NTAA 230400Z VRB02KT 9999 VCSH FEW016TCU BKN300 30/22 Q1011 WS ALL RWY NOSIG
Conditions at: NTAA (TAHITI-FAAA POLY, WS) observed 0400 UTC 23 January 2019
Temperature: 30.0°C (86°F)
Dewpoint: 22.0°C (72°F) [RH = 62%]
Pressure (altimeter): 29.85 inches Hg (1011.0 mb)
Winds: variable direction winds at 2 MPH (2 knots; 1.0 m/s)
Visibility: 6 or more miles (10+ km)
Ceiling: 30000 feet AGL
Clouds: few clouds at 1600 feet AGL
broken clouds at 30000 feet AGL
Weather: VCSH  (showers in vicinity)

METAR text: NTAA 230330Z 20004KT 160V240 9999 FEW020TCU BKN300 30/23 Q1011 WS ALL RWY NOSIG
Conditions at: NTAA (TAHITI-FAAA POLY, WS) observed 0330 UTC 23 January 2019
Temperature: 30.0°C (86°F)
Dewpoint: 23.0°C (73°F) [RH = 66%]
Pressure (altimeter): 29.85 inches Hg (1011.0 mb)
Winds: from the SSW (200 degrees) at 5 MPH (4 knots; 2.1 m/s)
Visibility: 6 or more miles (10+ km)
Ceiling: 30000 feet AGL
Clouds: few clouds at 2000 feet AGL
broken clouds at 30000 feet AGL
Weather: no significant weather observed at this time

METAR text: NTAA 230300Z 06008KT 9999 FEW028 SCT300 31/22 Q1011 WS ALL RWY NOSIG
Conditions at: NTAA (TAHITI-FAAA POLY, WS) observed 0300 UTC 23 January 2019
Temperature: 31.0°C (88°F)
Dewpoint: 22.0°C (72°F) [RH = 59%]
Pressure (altimeter): 29.85 inches Hg (1011.0 mb)
Winds: from the ENE (60 degrees) at 9 MPH (8 knots; 4.1 m/s)
Visibility: 6 or more miles (10+ km)
Ceiling: at least 12,000 feet AGL
Clouds: few clouds at 2800 feet AGL
scattered clouds at 30000 feet AGL
Weather: no significant weather observed at this time

METAR text: NTAA 230230Z 06014KT 9999 FEW028 SCT300 31/22 Q1010 WS ALL RWY NOSIG
Conditions at: NTAA (TAHITI-FAAA POLY, WS) observed 0230 UTC 23 January 2019
Temperature: 31.0°C (88°F)
Dewpoint: 22.0°C (72°F) [RH = 59%]
Pressure (altimeter): 29.82 inches Hg (1010.0 mb)
Winds: from the ENE (60 degrees) at 16 MPH (14 knots; 7.2 m/s)
Visibility: 6 or more miles (10+ km)
Ceiling: at least 12,000 feet AGL
Clouds: few clouds at 2800 feet AGL
scattered clouds at 30000 feet AGL
Weather: no significant weather observed at this time

METAR text: NTAA 230200Z 06016KT 9999 FEW028 31/23 Q1010 WS ALL RWY NOSIG
Conditions at: NTAA (TAHITI-FAAA POLY, WS) observed 0200 UTC 23 January 2019
Temperature: 31.0°C (88°F)
Dewpoint: 23.0°C (73°F) [RH = 63%]
Pressure (altimeter): 29.82 inches Hg (1010.0 mb)
Winds: from the ENE (60 degrees) at 18 MPH (16 knots; 8.2 m/s)
Visibility: 6 or more miles (10+ km)
Ceiling: at least 12,000 feet AGL
Clouds: few clouds at 2800 feet AGL
Weather: no significant weather observed at this time

METAR text: NTAA 230130Z 06016KT 9999 FEW030 31/23 Q1010 WS ALL RWY NOSIG
Conditions at: NTAA (TAHITI-FAAA POLY, WS) observed 0130 UTC 23 January 2019
Temperature: 31.0°C (88°F)
Dewpoint: 23.0°C (73°F) [RH = 63%]
Pressure (altimeter): 29.82 inches Hg (1010.0 mb)
Winds: from the ENE (60 degrees) at 18 MPH (16 knots; 8.2 m/s)
Visibility: 6 or more miles (10+ km)
Ceiling: at least 12,000 feet AGL
Clouds: few clouds at 3000 feet AGL
Weather: no significant weather observed at this time

METAR text: NTAA 230100Z 06017KT 9999 FEW030 31/22 Q1010 WS ALL RWY NOSIG
Conditions at: NTAA (TAHITI-FAAA POLY, WS) observed 0100 UTC 23 January 2019
Temperature: 31.0°C (88°F)
Dewpoint: 22.0°C (72°F) [RH = 59%]
Pressure (altimeter): 29.82 inches Hg (1010.0 mb)
Winds: from the ENE (60 degrees) at 20 MPH (17 knots; 8.7 m/s)
Visibility: 6 or more miles (10+ km)
Ceiling: at least 12,000 feet AGL
Clouds: few clouds at 3000 feet AGL
Weather: no significant weather observed at this time

METAR text: NTAA 230030Z 06015KT 9999 FEW030 32/23 Q1010 WS ALL RWY NOSIG
Conditions at: NTAA (TAHITI-FAAA POLY, WS) observed 0030 UTC 23 January 2019
Temperature: 32.0°C (90°F)
Dewpoint: 23.0°C (73°F) [RH = 59%]
Pressure (altimeter): 29.82 inches Hg (1010.0 mb)
Winds: from the ENE (60 degrees) at 17 MPH (15 knots; 7.7 m/s)
Visibility: 6 or more miles (10+ km)
Ceiling: at least 12,000 feet AGL
Clouds: few clouds at 3000 feet AGL
Weather: no significant weather observed at this time

METAR text: NTAA 230000Z 06013KT 040V100 9999 FEW030 32/22 Q1010 WS ALL RWY NOSIG
Conditions at: NTAA (TAHITI-FAAA POLY, WS) observed 0000 UTC 23 January 2019
Temperature: 32.0°C (90°F)
Dewpoint: 22.0°C (72°F) [RH = 56%]
Pressure (altimeter): 29.82 inches Hg (1010.0 mb)
Winds: from the ENE (60 degrees) at 15 MPH (13 knots; 6.7 m/s)
Visibility: 6 or more miles (10+ km)
Ceiling: at least 12,000 feet AGL
Clouds: few clouds at 3000 feet AGL
Weather: no significant weather observed at this time

METAR text: NTAA 222330Z 06014KT 9999 FEW028 SCT300 32/22 Q1011 NOSIG
Conditions at: NTAA (TAHITI-FAAA POLY, WS) observed 2330 UTC 22 January 2019
Temperature: 32.0°C (90°F)
Dewpoint: 22.0°C (72°F) [RH = 56%]
Pressure (altimeter): 29.85 inches Hg (1011.0 mb)
Winds: from the ENE (60 degrees) at 16 MPH (14 knots; 7.2 m/s)
Visibility: 6 or more miles (10+ km)
Ceiling: at least 12,000 feet AGL
Clouds: few clouds at 2800 feet AGL
scattered clouds at 30000 feet AGL
Weather: no significant weather observed at this time

METAR text: NTAA 222300Z 06015KT 9999 FEW020TCU 31/23 Q1011 NOSIG
Conditions at: NTAA (TAHITI-FAAA POLY, WS) observed 2300 UTC 22 January 2019
Temperature: 31.0°C (88°F)
Dewpoint: 23.0°C (73°F) [RH = 63%]
Pressure (altimeter): 29.85 inches Hg (1011.0 mb)
Winds: from the ENE (60 degrees) at 17 MPH (15 knots; 7.7 m/s)
Visibility: 6 or more miles (10+ km)
Ceiling: at least 12,000 feet AGL
Clouds: few clouds at 2000 feet AGL
Weather: no significant weather observed at this time

METAR text: NTAA 222230Z 06015KT 9999 VCSH FEW020TCU 32/22 Q1011 NOSIG
Conditions at: NTAA (TAHITI-FAAA POLY, WS) observed 2230 UTC 22 January 2019
Temperature: 32.0°C (90°F)
Dewpoint: 22.0°C (72°F) [RH = 56%]
Pressure (altimeter): 29.85 inches Hg (1011.0 mb)
Winds: from the ENE (60 degrees) at 17 MPH (15 knots; 7.7 m/s)
Visibility: 6 or more miles (10+ km)
Ceiling: at least 12,000 feet AGL
Clouds: few clouds at 2000 feet AGL
Weather: VCSH  (showers in vicinity)

METAR text: NTAA 222200Z 06014KT 9999 VCSH FEW020TCU SCT096 32/23 Q1011 NOSIG
Conditions at: NTAA (TAHITI-FAAA POLY, WS) observed 2200 UTC 22 January 2019
Temperature: 32.0°C (90°F)
Dewpoint: 23.0°C (73°F) [RH = 59%]
Pressure (altimeter): 29.85 inches Hg (1011.0 mb)
Winds: from the ENE (60 degrees) at 16 MPH (14 knots; 7.2 m/s)
Visibility: 6 or more miles (10+ km)
Ceiling: at least 12,000 feet AGL
Clouds: few clouds at 2000 feet AGL
scattered clouds at 9600 feet AGL
Weather: VCSH  (showers in vicinity)

METAR text: NTAA 222130Z 05012KT 9999 FEW020TCU SCT160 32/23 Q1012 NOSIG
Conditions at: NTAA (TAHITI-FAAA POLY, WS) observed 2130 UTC 22 January 2019
Temperature: 32.0°C (90°F)
Dewpoint: 23.0°C (73°F) [RH = 59%]
Pressure (altimeter): 29.88 inches Hg (1012.0 mb)
Winds: from the NE (50 degrees) at 14 MPH (12 knots; 6.2 m/s)
Visibility: 6 or more miles (10+ km)
Ceiling: at least 12,000 feet AGL
Clouds: few clouds at 2000 feet AGL
scattered clouds at 16000 feet AGL
Weather: no significant weather observed at this time

METAR text: NTAA 222100Z 07010KT 040V100 9999 VCSH FEW020TCU SCT160 BKN300 32/21 Q1012 NOSIG
Conditions at: NTAA (TAHITI-FAAA POLY, WS) observed 2100 UTC 22 January 2019
Temperature: 32.0°C (90°F)
Dewpoint: 21.0°C (70°F) [RH = 52%]
Pressure (altimeter): 29.88 inches Hg (1012.0 mb)
Winds: from the ENE (70 degrees) at 12 MPH (10 knots; 5.1 m/s)
Visibility: 6 or more miles (10+ km)
Ceiling: 30000 feet AGL
Clouds: few clouds at 2000 feet AGL
scattered clouds at 16000 feet AGL
broken clouds at 30000 feet AGL
Weather: VCSH  (showers in vicinity)

METAR text: NTAA 222030Z 06010KT 9999 FEW021TCU SCT090 BKN300 30/22 Q1012 NOSIG
Conditions at: NTAA (TAHITI-FAAA POLY, WS) observed 2030 UTC 22 January 2019
Temperature: 30.0°C (86°F)
Dewpoint: 22.0°C (72°F) [RH = 62%]
Pressure (altimeter): 29.88 inches Hg (1012.0 mb)
Winds: from the ENE (60 degrees) at 12 MPH (10 knots; 5.1 m/s)
Visibility: 6 or more miles (10+ km)
Ceiling: 30000 feet AGL
Clouds: few clouds at 2100 feet AGL
scattered clouds at 9000 feet AGL
broken clouds at 30000 feet AGL
Weather: no significant weather observed at this time

METAR text: NTAA 222000Z 08013KT 9999 VCSH FEW021TCU BKN300 30/22 Q1013 NOSIG
Conditions at: NTAA (TAHITI-FAAA POLY, WS) observed 2000 UTC 22 January 2019
Temperature: 30.0°C (86°F)
Dewpoint: 22.0°C (72°F) [RH = 62%]
Pressure (altimeter): 29.91 inches Hg (1013.0 mb)
Winds: from the E (80 degrees) at 15 MPH (13 knots; 6.7 m/s)
Visibility: 6 or more miles (10+ km)
Ceiling: 30000 feet AGL
Clouds: few clouds at 2100 feet AGL
broken clouds at 30000 feet AGL
Weather: VCSH  (showers in vicinity)

METAR text: NTAA 221930Z 07011KT 9999 FEW021TCU BKN300 31/21 Q1012 NOSIG
Conditions at: NTAA (TAHITI-FAAA POLY, WS) observed 1930 UTC 22 January 2019
Temperature: 31.0°C (88°F)
Dewpoint: 21.0°C (70°F) [RH = 55%]
Pressure (altimeter): 29.88 inches Hg (1012.0 mb)
Winds: from the ENE (70 degrees) at 13 MPH (11 knots; 5.7 m/s)
Visibility: 6 or more miles (10+ km)
Ceiling: 30000 feet AGL
Clouds: few clouds at 2100 feet AGL
broken clouds at 30000 feet AGL
Weather: no significant weather observed at this time

METAR text: NTAA 221900Z 06010KT 9999 VCSH FEW021TCU BKN300 31/23 Q1013 NOSIG
Conditions at: NTAA (TAHITI-FAAA POLY, WS) observed 1900 UTC 22 January 2019
Temperature: 31.0°C (88°F)
Dewpoint: 23.0°C (73°F) [RH = 63%]
Pressure (altimeter): 29.91 inches Hg (1013.0 mb)
Winds: from the ENE (60 degrees) at 12 MPH (10 knots; 5.1 m/s)
Visibility: 6 or more miles (10+ km)
Ceiling: 30000 feet AGL
Clouds: few clouds at 2100 feet AGL
broken clouds at 30000 feet AGL
Weather: VCSH  (showers in vicinity)

METAR text: NTAA 221830Z 07009KT 040V100 9999 FEW028 BKN300 31/21 Q1013 NOSIG
Conditions at: NTAA (TAHITI-FAAA POLY, WS) observed 1830 UTC 22 January 2019
Temperature: 31.0°C (88°F)
Dewpoint: 21.0°C (70°F) [RH = 55%]
Pressure (altimeter): 29.91 inches Hg (1013.0 mb)
Winds: from the ENE (70 degrees) at 10 MPH (9 knots; 4.6 m/s)
Visibility: 6 or more miles (10+ km)
Ceiling: 30000 feet AGL
Clouds: few clouds at 2800 feet AGL
broken clouds at 30000 feet AGL
Weather: no significant weather observed at this time

METAR text: NTAA 221800Z 08003KT 030V190 9999 FEW028 BKN300 30/20 Q1012 NOSIG
Conditions at: NTAA (TAHITI-FAAA POLY, WS) observed 1800 UTC 22 January 2019
Temperature: 30.0°C (86°F)
Dewpoint: 20.0°C (68°F) [RH = 55%]
Pressure (altimeter): 29.88 inches Hg (1012.0 mb)
Winds: from the E (80 degrees) at 3 MPH (3 knots; 1.5 m/s)
Visibility: 6 or more miles (10+ km)
Ceiling: 30000 feet AGL
Clouds: few clouds at 2800 feet AGL
broken clouds at 30000 feet AGL
Weather: no significant weather observed at this time

METAR text: NTAA 221730Z VRB02KT 9999 FEW026 BKN300 30/20 Q1012 NOSIG
Conditions at: NTAA (TAHITI-FAAA POLY, WS) observed 1730 UTC 22 January 2019
Temperature: 30.0°C (86°F)
Dewpoint: 20.0°C (68°F) [RH = 55%]
Pressure (altimeter): 29.88 inches Hg (1012.0 mb)
Winds: variable direction winds at 2 MPH (2 knots; 1.0 m/s)
Visibility: 6 or more miles (10+ km)
Ceiling: 30000 feet AGL
Clouds: few clouds at 2600 feet AGL
broken clouds at 30000 feet AGL
Weather: no significant weather observed at this time

METAR text: NTAA 221700Z 10003KT 070V160 9999 FEW026 BKN300 28/20 Q1012 NOSIG
Conditions at: NTAA (TAHITI-FAAA POLY, WS) observed 1700 UTC 22 January 2019
Temperature: 28.0°C (82°F)
Dewpoint: 20.0°C (68°F) [RH = 62%]
Pressure (altimeter): 29.88 inches Hg (1012.0 mb)
Winds: from the E (100 degrees) at 3 MPH (3 knots; 1.5 m/s)
Visibility: 6 or more miles (10+ km)
Ceiling: 30000 feet AGL
Clouds: few clouds at 2600 feet AGL
broken clouds at 30000 feet AGL
Weather: no significant weather observed at this time

Forecast for: NTAA (TAHITI-FAAA POLY, WS)
Text: TAF NTAA 232300Z 2400/2506 07017KT 9999 FEW023 SCT050
Forecast period: 0000 to 0200 UTC 24 January 2019
Forecast type: FROM: standard forecast or significant change
Winds: from the ENE (70 degrees) at 20 MPH (17 knots; 8.7 m/s)
Visibility: 6 or more miles 10+ km)
Ceiling: at least 12,000 feet AGL
Clouds: few clouds at 2300 feet AGL
scattered clouds at 5000 feet AGL
Weather: no significant weather forecast for this period
Text: BECMG 2402/2404 VRB03KT
Forecast period: 0200 UTC 24 January 2019 to 0600 UTC 25 January 2019
Forecast type: BECOMING: Conditions expected to become as follows by 0400 UTC 24 January 2019
Winds: variable direction winds at 3 MPH (3 knots; 1.5 m/s)
Visibility: 6 or more miles 10+ km)
Ceiling: at least 12,000 feet AGL
Clouds: few clouds at 2300 feet AGL
scattered clouds at 5000 feet AGL
Weather: no significant weather forecast for this period